createdAt,value
2022-12-06T00:01:42.710Z,4.56
2022-12-06T00:06:39.129Z,4.55
2022-12-06T00:11:36.042Z,4.55
2022-12-06T00:16:29.059Z,4.55
2022-12-06T00:21:22.208Z,4.54
2022-12-06T00:26:14.762Z,4.57
2022-12-06T00:31:09.238Z,4.56
2022-12-06T00:36:04.340Z,4.52
2022-12-06T00:41:07.029Z,4.46
2022-12-06T00:45:59.168Z,4.43
2022-12-06T00:50:51.316Z,4.39
2022-12-06T00:55:44.166Z,4.36
2022-12-06T01:00:35.900Z,4.32
2022-12-06T01:05:27.921Z,4.26
2022-12-06T01:10:19.754Z,4.22
2022-12-06T01:15:11.503Z,4.15
2022-12-06T01:20:04.851Z,4.09
2022-12-06T01:24:56.565Z,4.01
2022-12-06T01:29:48.316Z,3.93
2022-12-06T01:34:40.163Z,3.86
2022-12-06T01:39:32.401Z,3.75
2022-12-06T01:44:58.368Z,3.68
2022-12-06T01:49:54.671Z,3.60
2022-12-06T01:54:46.864Z,3.52
2022-12-06T01:59:38.724Z,3.42
2022-12-06T02:04:31.900Z,3.33
2022-12-06T02:09:24.517Z,3.27
2022-12-06T02:14:23.826Z,3.23
2022-12-06T02:19:34.051Z,3.18
2022-12-06T02:24:56.947Z,3.13
2022-12-06T02:30:44.048Z,3.10
2022-12-06T02:35:39.071Z,3.06
2022-12-06T02:40:39.894Z,3.01
2022-12-06T02:45:36.047Z,2.95
2022-12-06T02:50:37.403Z,2.92
2022-12-06T02:55:30.362Z,2.85
2022-12-06T03:00:35.951Z,2.78
2022-12-06T03:05:38.554Z,2.71
2022-12-06T03:10:45.213Z,2.67
2022-12-06T03:15:42.311Z,2.60
2022-12-06T03:20:50.026Z,2.55
2022-12-06T03:25:43.510Z,2.49
2022-12-06T03:30:36.198Z,2.39
2022-12-06T03:35:31.842Z,2.36
2022-12-06T03:40:30.607Z,2.30
2022-12-06T03:45:31.899Z,2.27
2022-12-06T03:50:32.462Z,2.23
2022-12-06T03:55:24.135Z,2.15
2022-12-06T04:00:16.728Z,2.09
2022-12-06T04:05:08.956Z,2.07
2022-12-06T04:10:03.859Z,2.04
2022-12-06T04:14:55.650Z,1.97
2022-12-06T04:19:51.925Z,1.95
2022-12-06T04:24:44.051Z,1.90
2022-12-06T04:29:54.411Z,1.84
2022-12-06T04:35:04.366Z,1.84
2022-12-06T04:39:56.105Z,1.80
2022-12-06T04:44:47.980Z,1.83
2022-12-06T04:49:39.731Z,1.81
2022-12-06T04:54:31.951Z,1.87
2022-12-06T04:59:25.442Z,1.84
2022-12-06T05:04:17.288Z,1.83
2022-12-06T05:09:09.580Z,1.84
2022-12-06T05:14:01.242Z,1.81
2022-12-06T05:18:52.933Z,1.71
2022-12-06T05:23:44.582Z,1.69
2022-12-06T05:28:36.533Z,1.65
2022-12-06T05:33:28.829Z,1.60
2022-12-06T05:38:20.754Z,1.58
2022-12-06T05:43:13.329Z,1.54
2022-12-06T05:48:06.055Z,1.49
2022-12-06T05:52:59.860Z,1.48
2022-12-06T05:57:52.407Z,1.44
2022-12-06T06:02:44.811Z,1.40
2022-12-06T06:07:36.984Z,1.36
2022-12-06T06:12:28.655Z,1.33
2022-12-06T06:17:20.406Z,1.30
2022-12-06T06:22:12.150Z,1.25
2022-12-06T06:27:04.243Z,1.20
2022-12-06T06:31:56.444Z,1.14
2022-12-06T06:36:48.498Z,1.13
2022-12-06T06:41:40.210Z,1.08
2022-12-06T06:46:32.245Z,1.02
2022-12-06T06:51:24.207Z,0.96
2022-12-06T06:56:16.134Z,0.98
2022-12-06T07:01:09.820Z,0.97
2022-12-06T07:06:08.382Z,0.97
2022-12-06T07:11:00.795Z,0.97
2022-12-06T07:15:53.507Z,0.94
2022-12-06T07:20:46.321Z,0.93
2022-12-06T07:25:39.046Z,0.96
2022-12-06T07:30:30.751Z,0.93
2022-12-06T07:35:23.122Z,0.93
2022-12-06T07:40:16.128Z,0.95
2022-12-06T07:45:09.255Z,0.96
2022-12-06T07:50:01.292Z,0.97
2022-12-06T07:54:53.269Z,0.96
2022-12-06T07:59:45.015Z,0.97
2022-12-06T08:04:37.090Z,0.95
2022-12-06T08:09:29.126Z,0.92
2022-12-06T08:14:20.821Z,0.86
2022-12-06T08:19:12.649Z,0.88
2022-12-06T08:24:04.604Z,0.86
2022-12-06T08:28:56.337Z,0.87
2022-12-06T08:33:48.476Z,0.92
2022-12-06T08:38:40.799Z,0.93
2022-12-06T08:43:32.837Z,1.02
2022-12-06T08:48:24.769Z,1.11
2022-12-06T08:53:16.556Z,1.29
2022-12-06T08:58:08.701Z,1.38
2022-12-06T09:03:00.399Z,1.48
2022-12-06T09:07:52.360Z,1.57
2022-12-06T09:12:44.043Z,1.63
2022-12-06T09:17:36.112Z,1.69
2022-12-06T09:22:28.277Z,1.83
2022-12-06T09:27:20.372Z,1.95
2022-12-06T09:32:12.088Z,2.07
2022-12-06T09:37:11.656Z,2.21
2022-12-06T09:42:15.245Z,2.24
2022-12-06T09:47:44.776Z,2.35
2022-12-06T09:52:41.705Z,2.41
2022-12-06T09:57:42.916Z,2.43
2022-12-06T10:02:58.256Z,2.43
2022-12-06T10:08:29.184Z,2.46
2022-12-06T10:13:45.547Z,2.47
2022-12-06T10:18:52.270Z,2.56
2022-12-06T10:24:02.373Z,2.63
2022-12-06T10:29:17.259Z,2.72
2022-12-06T10:34:21.022Z,2.81
2022-12-06T10:39:24.159Z,2.92
2022-12-06T10:44:56.667Z,3.11
2022-12-06T10:50:03.697Z,3.28
2022-12-06T10:55:13.671Z,3.36
2022-12-06T11:00:25.120Z,3.50
2022-12-06T11:05:23.107Z,3.56
2022-12-06T11:10:27.065Z,3.75
2022-12-06T11:15:24.149Z,3.93
2022-12-06T11:20:29.084Z,4.01
2022-12-06T11:25:30.713Z,4.05
2022-12-06T11:30:22.921Z,4.00
2022-12-06T11:35:18.668Z,4.05
2022-12-06T11:40:25.854Z,4.14
2022-12-06T11:45:25.301Z,4.12
2022-12-06T11:50:20.028Z,4.15
2022-12-06T11:55:36.004Z,4.26
2022-12-06T12:00:29.107Z,4.43
2022-12-06T12:05:38.959Z,4.76
2022-12-06T12:10:39.707Z,4.88
2022-12-06T12:15:32.951Z,4.93
2022-12-06T12:20:28.389Z,4.98
2022-12-06T12:25:20.591Z,5.02
2022-12-06T12:30:15.513Z,5.09
2022-12-06T12:35:25.450Z,5.13
2022-12-06T12:40:41.961Z,5.22
2022-12-06T12:45:33.749Z,5.33
2022-12-06T12:50:26.459Z,5.48
2022-12-06T12:55:26.242Z,5.51
2022-12-06T13:00:33.042Z,5.51
2022-12-06T13:05:34.347Z,5.53
2022-12-06T13:10:34.246Z,5.65
2022-12-06T13:15:32.110Z,5.80
2022-12-06T13:20:30.591Z,5.88
2022-12-06T13:25:22.754Z,5.89
2022-12-06T13:30:23.964Z,5.87
2022-12-06T13:35:30.127Z,5.80
2022-12-06T13:40:33.800Z,5.84
2022-12-06T13:45:40.892Z,5.78
2022-12-06T13:50:32.517Z,5.76
2022-12-06T13:55:24.520Z,5.69
2022-12-06T14:00:49.379Z,5.59
2022-12-06T14:06:13.902Z,5.54
2022-12-06T14:11:12.445Z,5.50
2022-12-06T14:16:05.227Z,5.45
2022-12-06T14:20:58.184Z,5.45
2022-12-06T14:25:49.983Z,5.50
2022-12-06T14:30:43.761Z,5.52
2022-12-06T14:35:38.598Z,5.57
2022-12-06T14:41:09.478Z,5.64
2022-12-06T14:46:04.995Z,5.67
2022-12-06T14:51:01.364Z,5.68
2022-12-06T14:56:19.195Z,5.67
2022-12-06T15:01:27.032Z,5.63
2022-12-06T15:06:24.411Z,5.56
2022-12-06T15:11:35.949Z,5.51
2022-12-06T15:16:27.752Z,5.44
2022-12-06T15:21:19.711Z,5.39
2022-12-06T15:26:12.190Z,5.34
2022-12-06T15:31:30.375Z,5.30
2022-12-06T15:36:33.308Z,5.29
2022-12-06T15:41:27.194Z,5.20
2022-12-06T15:46:24.241Z,5.09
2022-12-06T15:51:20.769Z,4.97
2022-12-06T15:56:18.931Z,4.88
2022-12-06T16:01:18.289Z,4.89
2022-12-06T16:06:17.880Z,4.87
2022-12-06T16:11:12.729Z,4.86
2022-12-06T16:16:05.448Z,4.85
2022-12-06T16:20:57.198Z,4.82
2022-12-06T16:25:49.390Z,4.78
2022-12-06T16:30:42.113Z,4.70
2022-12-06T16:35:33.999Z,4.63
2022-12-06T16:40:28.149Z,4.57
2022-12-06T16:45:20.117Z,4.57
2022-12-06T16:50:25.022Z,4.58
2022-12-06T16:55:16.742Z,4.58
2022-12-06T17:00:10.583Z,4.56
2022-12-06T17:05:06.650Z,4.56
2022-12-06T17:09:59.662Z,4.57
2022-12-06T17:14:52.731Z,4.58
2022-12-06T17:19:44.728Z,4.48
2022-12-06T17:24:36.934Z,4.37
2022-12-06T17:29:28.792Z,4.32
2022-12-06T17:34:22.465Z,4.29
2022-12-06T17:39:17.261Z,4.22
2022-12-06T17:44:10.551Z,4.16
2022-12-06T17:49:02.665Z,4.15
2022-12-06T17:53:55.668Z,4.14
2022-12-06T17:58:47.482Z,4.09
2022-12-06T18:03:39.366Z,4.08
2022-12-06T18:08:31.071Z,4.08
2022-12-06T18:13:22.898Z,4.08
2022-12-06T18:18:14.730Z,4.06
2022-12-06T18:23:06.864Z,4.07
2022-12-06T18:27:58.596Z,4.04
2022-12-06T18:32:50.348Z,4.00
2022-12-06T18:37:42.290Z,4.05
2022-12-06T18:42:34.241Z,4.07
2022-12-06T18:47:26.112Z,4.07
2022-12-06T18:52:17.707Z,4.02
2022-12-06T18:57:09.476Z,4.04
2022-12-06T19:02:01.318Z,4.06
2022-12-06T19:06:53.198Z,4.10
2022-12-06T19:11:46.230Z,4.16
2022-12-06T19:16:41.104Z,4.17
2022-12-06T19:21:33.918Z,4.16
2022-12-06T19:26:27.217Z,4.17
2022-12-06T19:31:20.702Z,4.21
2022-12-06T19:36:24.984Z,4.18
2022-12-06T19:41:18.184Z,4.15
2022-12-06T19:46:15.650Z,4.12
2022-12-06T19:51:08.663Z,4.05
2022-12-06T19:56:00.689Z,3.95
2022-12-06T20:00:52.678Z,3.97
2022-12-06T20:05:44.432Z,3.95
2022-12-06T20:10:37.073Z,3.98
2022-12-06T20:15:29.008Z,3.96
2022-12-06T20:20:20.971Z,3.90
2022-12-06T20:25:12.739Z,3.83
2022-12-06T20:30:06.388Z,3.81
2022-12-06T20:34:58.080Z,3.79
2022-12-06T20:39:49.808Z,3.61
2022-12-06T20:44:41.507Z,3.53
2022-12-06T20:49:33.617Z,3.53
2022-12-06T20:54:25.563Z,3.44
2022-12-06T20:59:17.403Z,3.40
2022-12-06T21:04:12.846Z,3.34
2022-12-06T21:09:05.108Z,3.28
2022-12-06T21:13:57.943Z,3.20
2022-12-06T21:18:55.164Z,3.17
2022-12-06T21:23:46.875Z,3.07
2022-12-06T21:28:38.666Z,3.08
2022-12-06T21:33:30.517Z,2.97
2022-12-06T21:38:22.482Z,2.92
2022-12-06T21:43:14.174Z,2.81
2022-12-06T21:48:07.558Z,2.74
2022-12-06T21:52:59.405Z,2.72
2022-12-06T21:57:51.145Z,2.74
2022-12-06T22:02:44.018Z,2.68
2022-12-06T22:07:36.192Z,2.59
2022-12-06T22:12:28.310Z,2.58
2022-12-06T22:17:20.021Z,2.52
2022-12-06T22:22:12.404Z,2.47
2022-12-06T22:27:04.236Z,2.39
2022-12-06T22:31:56.819Z,2.34
2022-12-06T22:36:48.589Z,2.35
2022-12-06T22:41:40.277Z,2.31
2022-12-06T22:46:33.894Z,2.26
2022-12-06T22:51:31.196Z,2.21
2022-12-06T22:56:23.567Z,2.12
2022-12-06T23:01:18.560Z,2.14
2022-12-06T23:06:10.341Z,2.10
2022-12-06T23:11:11.845Z,2.08
2022-12-06T23:16:06.889Z,2.05
2022-12-06T23:21:26.489Z,2.04
2022-12-06T23:26:21.236Z,2.02
2022-12-06T23:31:15.857Z,1.99
2022-12-06T23:36:09.495Z,1.96
2022-12-06T23:41:02.961Z,1.90
2022-12-06T23:45:59.233Z,1.87
2022-12-06T23:51:23.069Z,1.86
2022-12-06T23:56:17.663Z,1.81
